Time;durP1;ratioP1;P1;durP2;ratioP2;P2;SDS_P1;SDS_P2;PMS_P1;PMS_P2;Temp;Humidity;BMP_temperature;BMP_pressure;BME280_temperature;BME280_humidity;BME280_pressure;Samples;Min_cycle;Max_cycle;Signal;HPM_P1;HPM_P2
2022/08/01 00:01:23;;;;;;;7.38;4.25;;;18.10;99.90;;;;;;5150864;27;20039;-82
2022/08/01 00:03:48;;;;;;;8.93;4.10;;;18.10;99.90;;;;;;5130646;27;20413;-82
2022/08/01 00:06:14;;;;;;;5.13;4.28;;;18.10;99.90;;;;;;5124427;27;20043;-83
2022/08/01 00:08:40;;;;;;;6.55;4.10;;;18.10;99.90;;;;;;5124738;27;20051;-82
2022/08/01 00:11:05;;;;;;;5.97;4.00;;;18.10;99.90;;;;;;5123092;27;20039;-82
2022/08/01 00:13:31;;;;;;;7.10;4.30;;;18.10;99.90;;;;;;5145012;27;20512;-83
2022/08/01 00:15:57;;;;;;;7.32;3.85;;;18.10;99.90;;;;;;5131550;27;20036;-83
2022/08/01 00:18:23;;;;;;;8.52;4.20;;;18.10;99.90;;;;;;5125700;27;20034;-82
2022/08/01 00:20:48;;;;;;;5.97;4.10;;;18.10;99.90;;;;;;5126405;27;20038;-82
2022/08/01 00:23:14;;;;;;;7.72;4.20;;;18.00;99.90;;;;;;5128740;27;20090;-82
2022/08/01 00:25:39;;;;;;;5.35;3.55;;;18.00;99.90;;;;;;5107763;27;20077;-82
2022/08/01 00:28:08;;;;;;;7.70;3.97;;;18.00;99.90;;;;;;5105274;27;20046;-83
2022/08/01 00:30:34;;;;;;;6.60;3.33;;;18.00;99.90;;;;;;5142234;27;20058;-82
2022/08/01 00:33:00;;;;;;;;;;;17.90;99.90;;;;;;5141539;27;20030;-82
2022/08/01 00:35:26;;;;;;;7.35;3.95;;;17.90;99.90;;;;;;5130428;27;20385;-82
2022/08/01 00:37:52;;;;;;;5.05;2.90;;;17.90;99.90;;;;;;5137769;27;20414;-82
2022/08/01 00:40:18;;;;;;;4.32;3.20;;;17.90;99.90;;;;;;5145246;27;20049;-82
2022/08/01 00:42:43;;;;;;;5.47;3.17;;;17.90;99.90;;;;;;5121852;27;20035;-82
2022/08/01 00:45:10;;;;;;;5.95;3.63;;;17.90;99.90;;;;;;5141141;27;20428;-82
2022/08/01 00:47:35;;;;;;;5.55;3.60;;;17.90;99.90;;;;;;5144663;27;20050;-83
2022/08/01 00:50:04;;;;;;;3.58;3.20;;;17.90;99.90;;;;;;5136963;27;20440;-82
2022/08/01 00:52:30;;;;;;;5.78;3.63;;;17.90;99.90;;;;;;5115607;27;20127;-82
2022/08/01 00:54:56;;;;;;;8.10;4.65;;;17.90;99.90;;;;;;5124730;27;20106;-82
2022/08/01 00:57:21;;;;;;;7.55;4.53;;;17.90;99.90;;;;;;5139335;27;20052;-83
2022/08/01 00:59:48;;;;;;;8.82;4.72;;;17.90;99.90;;;;;;5143986;27;20487;-82
2022/08/01 01:02:13;;;;;;;;;;;17.90;99.90;;;;;;5139713;27;20031;-83
2022/08/01 01:04:39;;;;;;;8.18;4.55;;;17.90;99.90;;;;;;5169055;27;19922;-83
2022/08/01 01:07:04;;;;;;;5.90;4.60;;;17.90;99.90;;;;;;5149572;27;20038;-82
2022/08/01 01:09:44;;;;;;;6.28;4.53;;;17.90;99.90;;;;;;5139977;27;20043;-82
2022/08/01 01:12:27;;;;;;;6.00;4.20;;;17.90;99.90;;;;;;5144807;27;20043;-82
2022/08/01 01:15:02;;;;;;;8.30;4.43;;;17.90;99.90;;;;;;5143128;27;20034;-82
2022/08/01 01:17:42;;;;;;;7.60;3.95;;;17.90;99.90;;;;;;5137724;27;20095;-82
2022/08/01 01:20:12;;;;;;;5.63;3.25;;;17.90;99.90;;;;;;5143089;27;20030;-82
2022/08/01 01:22:53;;;;;;;7.28;3.20;;;17.80;99.90;;;;;;5136767;27;20066;-82
2022/08/01 01:25:21;;;;;;;6.97;3.20;;;17.80;99.90;;;;;;5126937;27;20092;-82
2022/08/01 01:28:08;;;;;;;6.28;2.58;;;17.80;99.90;;;;;;5136184;27;20034;-82
2022/08/01 01:30:37;;;;;;;3.70;2.40;;;17.80;99.90;;;;;;5136138;27;20138;-82
2022/08/01 01:33:07;;;;;;;4.90;2.50;;;17.80;99.90;;;;;;5128200;27;20057;-82
2022/08/01 01:35:36;;;;;;;5.90;2.47;;;17.70;99.90;;;;;;5136374;27;20042;-81
2022/08/01 01:38:12;;;;;;;7.55;2.00;;;17.70;99.90;;;;;;5140515;27;20047;-82
2022/08/01 01:40:39;;;;;;;5.60;2.50;;;17.70;99.90;;;;;;5131186;27;20042;-82
2022/08/01 01:43:09;;;;;;;6.82;2.58;;;17.70;99.90;;;;;;5121905;27;20042;-82
2022/08/01 01:45:36;;;;;;;5.45;2.45;;;17.70;99.90;;;;;;5141097;27;20169;-82
2022/08/01 01:48:03;;;;;;;4.45;2.60;;;17.60;99.90;;;;;;5096437;27;20051;-82
2022/08/01 01:50:29;;;;;;;6.07;2.28;;;17.60;99.90;;;;;;5126662;27;20324;-81
2022/08/01 01:52:55;;;;;;;;;;;17.60;99.90;;;;;;5142585;27;20104;-82
2022/08/01 01:55:23;;;;;;;6.07;2.20;;;17.60;99.90;;;;;;5151679;27;20532;-82
2022/08/01 01:57:51;;;;;;;5.57;2.00;;;17.50;99.90;;;;;;5119585;27;20033;-82
2022/08/01 02:00:17;;;;;;;6.13;2.00;;;17.50;99.90;;;;;;5141697;27;20043;-83
2022/08/01 02:02:44;;;;;;;5.30;2.00;;;17.50;99.90;;;;;;5126771;27;20495;-82
2022/08/01 02:05:11;;;;;;;;;;;17.50;99.90;;;;;;5127931;27;20506;-82
2022/08/01 02:07:38;;;;;;;9.07;2.20;;;17.50;99.90;;;;;;5115726;27;19923;-82
2022/08/01 02:10:06;;;;;;;6.18;2.00;;;17.50;99.90;;;;;;5138642;27;20386;-82
2022/08/01 02:12:36;;;;;;;7.40;1.80;;;17.40;99.90;;;;;;5145250;27;20035;-81
2022/08/01 02:15:03;;;;;;;7.50;1.85;;;17.40;99.90;;;;;;5136436;27;20498;-82
2022/08/01 02:17:30;;;;;;;5.65;1.60;;;17.40;99.90;;;;;;5142278;27;20031;-82
2022/08/01 02:19:57;;;;;;;6.60;1.90;;;17.40;99.90;;;;;;5138704;27;20061;-83
2022/08/01 02:22:41;;;;;;;4.57;1.83;;;17.40;99.90;;;;;;5106232;27;20031;-83
2022/08/01 02:25:20;;;;;;;7.75;1.80;;;17.40;99.90;;;;;;5138223;27;20062;-82
2022/08/01 02:28:05;;;;;;;4.72;1.60;;;17.40;99.90;;;;;;5136552;27;20110;-82
2022/08/01 02:30:35;;;;;;;6.00;1.50;;;17.40;99.90;;;;;;5134850;27;20053;-82
2022/08/01 02:33:24;;;;;;;5.47;1.67;;;17.40;99.90;;;;;;5126407;27;20122;-82
2022/08/01 02:35:53;;;;;;;4.93;1.70;;;17.40;99.90;;;;;;5142049;27;20140;-83
2022/08/01 02:38:24;;;;;;;5.63;2.22;;;17.40;99.90;;;;;;5130218;27;20034;-82
2022/08/01 02:40:52;;;;;;;4.22;1.88;;;17.40;99.90;;;;;;5141742;27;20053;-83
2022/08/01 02:43:23;;;;;;;7.53;2.20;;;17.30;99.90;;;;;;5136879;27;20039;-83
2022/08/01 02:45:53;;;;;;;10.90;2.50;;;17.30;99.90;;;;;;5147264;27;20375;-83
2022/08/01 02:48:20;;;;;;;8.40;2.92;;;17.30;99.90;;;;;;5140271;27;20525;-83
2022/08/01 02:50:49;;;;;;;9.05;2.90;;;17.30;99.90;;;;;;5122001;27;20070;-82
2022/08/01 02:53:18;;;;;;;15.90;3.13;;;17.20;99.90;;;;;;5144943;27;20039;-82
2022/08/01 02:55:47;;;;;;;8.65;2.80;;;17.20;99.90;;;;;;5142062;27;20478;-82
2022/08/01 02:58:15;;;;;;;12.50;2.97;;;17.20;99.90;;;;;;5128095;27;20111;-82
2022/08/01 03:00:44;;;;;;;13.10;3.33;;;17.20;99.90;;;;;;5155179;27;20050;-82
2022/08/01 03:03:10;;;;;;;9.50;3.03;;;17.20;99.90;;;;;;5141212;27;20038;-82
2022/08/01 03:05:39;;;;;;;10.43;3.10;;;17.10;99.90;;;;;;5143727;27;20046;-83
2022/08/01 03:08:07;;;;;;;10.65;3.38;;;17.10;99.90;;;;;;5130148;27;20038;-83
2022/08/01 03:10:35;;;;;;;11.27;3.00;;;17.10;99.90;;;;;;5145430;27;20405;-82
2022/08/01 03:13:03;;;;;;;9.65;2.95;;;17.10;99.90;;;;;;5141309;27;20066;-83
2022/08/01 03:15:31;;;;;;;6.22;2.80;;;17.10;99.90;;;;;;5132008;27;20038;-83
2022/08/01 03:17:59;;;;;;;6.95;2.90;;;17.00;99.90;;;;;;5142696;27;20039;-83
2022/08/01 03:20:27;;;;;;;7.05;2.65;;;17.00;99.90;;;;;;5151782;27;20125;-83
2022/08/01 03:22:54;;;;;;;9.48;2.75;;;17.00;99.90;;;;;;5148359;27;20035;-83
2022/08/01 03:25:21;;;;;;;9.35;3.05;;;17.00;99.90;;;;;;5112214;27;20551;-83
2022/08/01 03:27:53;;;;;;;9.57;3.00;;;17.00;99.90;;;;;;5143568;27;20566;-83
2022/08/01 03:30:21;;;;;;;7.60;3.10;;;17.00;99.90;;;;;;5128695;27;20039;-83
2022/08/01 03:32:46;;;;;;;9.43;3.10;;;17.00;99.90;;;;;;5123565;27;20117;-82
2022/08/01 03:35:12;;;;;;;11.75;3.90;;;17.00;99.90;;;;;;5142808;27;20071;-82
2022/08/01 03:37:46;;;;;;;11.63;3.45;;;16.90;99.90;;;;;;5138832;27;20063;-82
2022/08/01 03:40:24;;;;;;;8.45;3.33;;;16.90;99.90;;;;;;5143419;27;20095;-83
2022/08/01 03:42:55;;;;;;;8.25;3.20;;;16.90;99.90;;;;;;5145221;27;20460;-82
2022/08/01 03:45:33;;;;;;;8.13;2.83;;;16.90;99.90;;;;;;5136373;27;20483;-82
2022/08/01 03:48:04;;;;;;;11.43;3.20;;;16.90;99.90;;;;;;5126619;27;20055;-82
2022/08/01 03:50:33;;;;;;;10.77;3.22;;;16.90;99.90;;;;;;5141729;27;20047;-82
2022/08/01 03:53:01;;;;;;;9.40;2.80;;;16.90;99.90;;;;;;5143229;27;20517;-83
2022/08/01 03:55:29;;;;;;;9.27;2.95;;;16.90;99.90;;;;;;5122656;27;20035;-82
2022/08/01 03:57:56;;;;;;;8.27;2.80;;;16.90;99.90;;;;;;5140640;27;20108;-83
2022/08/01 04:00:24;;;;;;;11.30;3.30;;;16.90;99.90;;;;;;5143000;27;20298;-83
2022/08/01 04:02:50;;;;;;;10.65;3.30;;;16.90;99.90;;;;;;5141843;27;20039;-83
2022/08/01 04:05:17;;;;;;;11.30;3.10;;;16.90;99.90;;;;;;5141301;27;20383;-83
2022/08/01 04:07:56;;;;;;;11.23;3.05;;;16.90;99.90;;;;;;5139895;27;20045;-83
2022/08/01 04:10:23;;;;;;;10.05;2.85;;;16.90;99.90;;;;;;5120613;27;20035;-83
2022/08/01 04:12:49;;;;;;;10.27;3.20;;;16.90;99.90;;;;;;5142412;27;20103;-83
2022/08/01 04:15:15;;;;;;;10.52;3.30;;;16.90;99.90;;;;;;5145264;27;20038;-81
2022/08/01 04:17:40;;;;;;;8.82;2.90;;;16.90;99.90;;;;;;5126115;27;20356;-84
2022/08/01 04:20:07;;;;;;;6.90;2.80;;;16.90;99.90;;;;;;5123802;27;20121;-83
2022/08/01 04:22:33;;;;;;;9.13;2.88;;;16.90;99.90;;;;;;5128722;27;20039;-83
2022/08/01 04:25:02;;;;;;;7.78;2.60;;;16.90;99.90;;;;;;5145508;27;20044;-83
2022/08/01 04:27:37;;;;;;;7.22;2.58;;;16.90;99.90;;;;;;5144289;27;20060;-85
2022/08/01 04:30:04;;;;;;;8.80;3.15;;;16.90;99.90;;;;;;5145371;27;20447;-85
2022/08/01 04:32:33;;;;;;;11.85;3.30;;;16.90;99.90;;;;;;5125603;27;20046;-84
2022/08/01 04:35:02;;;;;;;9.48;3.03;;;16.90;99.90;;;;;;5139741;27;20035;-87
2022/08/01 04:37:29;;;;;;;9.80;2.70;;;16.90;99.90;;;;;;5116599;27;20046;-86
2022/08/01 04:39:59;;;;;;;9.40;2.42;;;17.00;99.90;;;;;;5142677;27;20113;-86
2022/08/01 04:42:24;;;;;;;9.98;3.40;;;16.90;99.90;;;;;;5121853;27;20035;-85
2022/08/01 04:44:50;;;;;;;11.27;3.08;;;16.90;99.90;;;;;;5138015;27;20027;-84
2022/08/01 04:47:17;;;;;;;9.05;2.58;;;16.90;99.90;;;;;;5132253;27;20482;-86
2022/08/01 04:49:45;;;;;;;11.70;2.70;;;16.80;99.90;;;;;;5139599;27;20115;-85
2022/08/01 04:52:11;;;;;;;10.48;2.40;;;16.80;99.90;;;;;;5140176;27;20035;-85
2022/08/01 04:54:37;;;;;;;11.90;2.42;;;16.80;99.90;;;;;;5120175;27;20035;-86
2022/08/01 04:57:04;;;;;;;8.13;2.80;;;16.90;99.90;;;;;;5142124;27;20035;-86
2022/08/01 04:59:41;;;;;;;9.20;2.60;;;16.80;99.90;;;;;;5143735;27;20035;-87
2022/08/01 05:02:12;;;;;;;9.13;2.73;;;16.90;99.90;;;;;;5136936;27;20041;-87
2022/08/01 05:04:39;;;;;;;10.10;2.60;;;16.90;99.90;;;;;;5139411;27;20287;-87
2022/08/01 05:07:06;;;;;;;9.75;2.65;;;16.90;99.90;;;;;;5124457;27;20031;-87
2022/08/01 05:09:33;;;;;;;11.02;3.15;;;16.90;99.90;;;;;;5142322;27;20529;-87
2022/08/01 05:12:01;;;;;;;9.20;2.22;;;16.90;99.90;;;;;;5138740;27;20129;-87
2022/08/01 05:14:27;;;;;;;10.73;2.60;;;16.90;99.90;;;;;;5122259;27;20035;-87
2022/08/01 05:16:53;;;;;;;;;;;16.90;99.90;;;;;;5141303;27;20087;-87
2022/08/01 05:19:19;;;;;;;7.97;2.25;;;16.90;99.90;;;;;;5145046;27;19915;-87
2022/08/01 05:21:45;;;;;;;;;;;16.90;99.90;;;;;;5142574;27;20035;-87
2022/08/01 05:24:10;;;;;;;9.52;2.95;;;16.90;99.90;;;;;;5142995;27;19922;-87
2022/08/01 05:26:36;;;;;;;10.95;2.65;;;17.00;99.90;;;;;;5141345;27;20526;-86
2022/08/01 05:29:02;;;;;;;10.18;3.00;;;17.00;99.90;;;;;;5136236;27;20892;-86
2022/08/01 05:31:28;;;;;;;;;;;17.00;99.90;;;;;;5138289;27;20058;-86
2022/08/01 05:33:54;;;;;;;16.92;2.92;;;17.00;99.90;;;;;;5149154;27;19917;-87
2022/08/01 05:36:19;;;;;;;10.50;3.03;;;16.90;99.90;;;;;;5141813;27;20030;-87
2022/08/01 05:38:45;;;;;;;13.32;3.33;;;16.90;99.90;;;;;;5124325;27;20031;-86
2022/08/01 05:41:11;;;;;;;13.80;2.92;;;16.90;99.90;;;;;;5122431;27;20035;-87
2022/08/01 05:43:36;;;;;;;13.82;3.00;;;16.90;99.90;;;;;;5142103;27;20043;-86
2022/08/01 05:46:02;;;;;;;15.00;3.20;;;16.90;99.90;;;;;;5142972;27;20043;-87
2022/08/01 05:48:28;;;;;;;20.70;3.28;;;16.90;99.90;;;;;;5126233;27;20047;-88
2022/08/01 05:50:54;;;;;;;16.25;3.70;;;16.90;99.90;;;;;;5123505;27;20053;-87
2022/08/01 05:53:20;;;;;;;16.83;3.42;;;16.90;99.90;;;;;;5138823;27;20038;-87
2022/08/01 05:55:46;;;;;;;17.20;3.50;;;16.90;99.90;;;;;;5145610;27;20031;-86
2022/08/01 05:58:12;;;;;;;13.15;3.50;;;16.90;99.90;;;;;;5139175;27;20425;-86
2022/08/01 06:00:39;;;;;;;14.98;3.58;;;16.90;99.90;;;;;;5133829;27;20042;-86
2022/08/01 06:03:04;;;;;;;;;;;16.90;99.90;;;;;;5140652;27;20046;-87
2022/08/01 06:05:30;;;;;;;14.05;3.03;;;16.90;99.90;;;;;;5122283;27;19918;-87
2022/08/01 06:07:56;;;;;;;15.75;2.88;;;16.90;99.90;;;;;;5128856;27;20482;-87
2022/08/01 06:10:21;;;;;;;15.60;3.67;;;16.90;99.90;;;;;;5125844;27;20459;-87
2022/08/01 06:12:47;;;;;;;14.57;3.08;;;16.90;99.90;;;;;;5127974;27;20087;-87
2022/08/01 06:15:13;;;;;;;16.92;2.80;;;16.90;99.90;;;;;;5109019;27;20487;-86
2022/08/01 06:17:39;;;;;;;13.57;2.85;;;16.90;99.90;;;;;;5129914;27;20117;-86
2022/08/01 06:20:06;;;;;;;19.38;3.13;;;16.90;99.90;;;;;;5125170;27;20074;-87
2022/08/01 06:22:32;;;;;;;15.52;3.05;;;16.90;99.90;;;;;;5143426;27;20047;-86
2022/08/01 06:24:58;;;;;;;;;;;16.80;99.90;;;;;;5128998;27;20043;-87
2022/08/01 06:27:25;;;;;;;19.33;4.05;;;16.80;99.90;;;;;;5145663;27;19914;-87
2022/08/01 06:29:53;;;;;;;13.95;2.50;;;16.80;99.90;;;;;;5103578;27;20035;-87
2022/08/01 06:32:19;;;;;;;11.13;2.75;;;16.80;99.90;;;;;;5125447;27;20058;-86
2022/08/01 06:34:45;;;;;;;12.52;3.22;;;16.80;99.90;;;;;;5142204;27;20035;-86
2022/08/01 06:37:12;;;;;;;12.48;3.47;;;16.90;99.90;;;;;;5144476;27;20040;-87
2022/08/01 06:39:38;;;;;;;14.93;2.72;;;16.80;99.90;;;;;;5145368;27;20107;-88
2022/08/01 06:42:04;;;;;;;12.63;2.90;;;16.90;99.90;;;;;;5144872;27;20042;-87
2022/08/01 06:44:30;;;;;;;9.88;2.70;;;16.90;99.90;;;;;;5123843;27;20110;-86
2022/08/01 06:46:58;;;;;;;13.77;3.15;;;16.90;99.90;;;;;;5142339;27;20091;-87
2022/08/01 06:49:24;;;;;;;11.93;2.58;;;16.90;99.90;;;;;;5144272;27;20042;-87
2022/08/01 06:51:50;;;;;;;10.25;2.63;;;16.90;99.90;;;;;;5142824;27;20035;-87
2022/08/01 06:54:16;;;;;;;10.05;2.30;;;17.00;99.90;;;;;;5145024;27;20031;-87
2022/08/01 06:56:42;;;;;;;10.40;2.90;;;17.00;99.90;;;;;;5125610;27;20390;-87
2022/08/01 06:59:08;;;;;;;;;;;17.00;99.90;;;;;;5127856;27;20487;-87
2022/08/01 07:01:33;;;;;;;16.20;2.90;;;17.10;99.90;;;;;;5127928;27;19926;-87
2022/08/01 07:03:59;;;;;;;17.40;2.60;;;17.10;99.90;;;;;;5125067;27;20069;-87
2022/08/01 07:06:25;;;;;;;14.80;2.50;;;17.20;99.90;;;;;;5129727;27;20034;-88
2022/08/01 07:08:52;;;;;;;15.27;2.35;;;17.30;99.90;;;;;;5124514;27;20462;-87
2022/08/01 07:11:19;;;;;;;18.48;2.67;;;17.40;99.90;;;;;;5122436;27;20037;-87
2022/08/01 07:13:47;;;;;;;10.15;2.80;;;17.50;99.90;;;;;;5142232;27;20049;-87
2022/08/01 07:16:14;;;;;;;7.70;2.28;;;17.60;99.90;;;;;;5127693;27;20033;-88
2022/08/01 07:18:40;;;;;;;11.80;2.10;;;17.80;99.90;;;;;;5145852;27;20122;-86
2022/08/01 07:21:06;;;;;;;7.03;1.83;;;17.90;99.90;;;;;;5125514;27;20039;-87
2022/08/01 07:23:32;;;;;;;11.55;1.90;;;18.00;99.90;;;;;;5124907;27;20061;-86
2022/08/01 07:25:58;;;;;;;9.05;1.88;;;18.10;99.90;;;;;;5144172;27;20070;-87
2022/08/01 07:28:24;;;;;;;12.80;2.35;;;18.30;99.90;;;;;;5127104;27;20035;-86
2022/08/01 07:30:50;;;;;;;16.17;2.35;;;18.60;99.90;;;;;;5107633;27;20388;-87
2022/08/01 07:33:15;;;;;;;12.98;2.28;;;18.70;99.90;;;;;;5141707;27;20035;-87
2022/08/01 07:35:41;;;;;;;10.85;1.70;;;18.90;99.90;;;;;;5124635;27;20042;-87
2022/08/01 07:38:07;;;;;;;10.70;2.58;;;18.90;99.90;;;;;;5126918;27;20119;-87
2022/08/01 07:40:33;;;;;;;11.23;1.75;;;19.00;99.90;;;;;;5127160;27;20043;-87
2022/08/01 07:42:59;;;;;;;9.32;1.98;;;19.20;99.90;;;;;;5143664;27;20027;-87
2022/08/01 07:45:26;;;;;;;11.27;2.30;;;19.50;99.90;;;;;;5142270;27;20030;-88
2022/08/01 07:47:52;;;;;;;9.55;1.80;;;19.70;99.90;;;;;;5146149;27;20054;-87
2022/08/01 07:50:18;;;;;;;9.02;2.00;;;19.80;99.90;;;;;;5140260;27;20047;-87
2022/08/01 07:52:44;;;;;;;7.35;1.48;;;19.80;99.90;;;;;;5126629;27;20486;-87
2022/08/01 07:55:11;;;;;;;9.95;1.75;;;20.20;99.90;;;;;;5146816;27;20031;-87
2022/08/01 07:57:37;;;;;;;9.68;2.00;;;20.50;99.90;;;;;;5143629;27;20027;-86
2022/08/01 08:00:05;;;;;;;11.95;1.80;;;20.90;99.90;;;;;;5144714;27;20118;-86
2022/08/01 08:02:31;;;;;;;7.90;1.40;;;21.20;99.90;;;;;;5138831;27;20060;-87
2022/08/01 08:04:57;;;;;;;7.55;1.95;;;21.30;99.90;;;;;;5145835;27;20035;-87
2022/08/01 08:07:22;;;;;;;5.88;1.27;;;21.30;99.90;;;;;;5124342;27;20476;-87
2022/08/01 08:09:48;;;;;;;7.43;1.52;;;21.50;99.90;;;;;;5123850;27;20023;-87
2022/08/01 08:12:14;;;;;;;6.22;1.30;;;21.60;99.90;;;;;;5124478;27;20048;-88
2022/08/01 08:14:40;;;;;;;6.90;1.58;;;21.90;99.90;;;;;;5129379;27;20042;-88
2022/08/01 08:17:05;;;;;;;9.63;1.20;;;22.00;99.90;;;;;;5106207;27;20066;-88
2022/08/01 08:19:33;;;;;;;8.90;1.42;;;22.10;99.90;;;;;;5123311;27;20518;-88
2022/08/01 08:22:00;;;;;;;7.05;1.38;;;22.30;99.90;;;;;;5125441;27;20038;-87
2022/08/01 08:24:26;;;;;;;9.23;1.30;;;22.40;99.90;;;;;;5130555;27;20035;-86
2022/08/01 08:26:57;;;;;;;5.50;1.20;;;22.20;99.90;;;;;;5124497;27;20045;-88
2022/08/01 08:29:23;;;;;;;7.90;1.40;;;22.10;99.90;;;;;;5143013;27;20085;-88
2022/08/01 08:31:49;;;;;;;7.78;1.35;;;22.10;99.90;;;;;;5139256;27;20034;-88
2022/08/01 08:34:15;;;;;;;;;;;22.60;99.90;;;;;;5140646;27;20398;-88
2022/08/01 08:36:41;;;;;;;6.72;1.00;;;22.80;99.90;;;;;;5125487;27;19922;-87
2022/08/01 08:39:07;;;;;;;8.02;1.23;;;23.10;99.90;;;;;;5122621;27;20031;-88
2022/08/01 08:41:35;;;;;;;7.50;1.38;;;22.80;99.90;;;;;;5137057;27;20035;-88
2022/08/01 08:44:06;;;;;;;4.80;1.08;;;22.80;99.90;;;;;;5147385;27;20248;-88
2022/08/01 08:46:33;;;;;;;9.43;1.83;;;22.50;99.90;;;;;;5139372;27;20035;-88
2022/08/01 08:49:01;;;;;;;7.13;1.33;;;22.50;99.90;;;;;;5142991;27;20379;-88
2022/08/01 08:51:28;;;;;;;6.88;1.13;;;22.70;99.90;;;;;;5140206;27;20096;-88
2022/08/01 08:53:56;;;;;;;4.70;0.80;;;22.70;99.90;;;;;;5145357;27;20035;-89
2022/08/01 08:56:24;;;;;;;5.05;1.20;;;22.90;99.90;;;;;;5125333;27;20038;-88
2022/08/01 08:58:51;;;;;;;4.00;1.00;;;22.90;99.90;;;;;;5142904;27;20046;-88
2022/08/01 09:01:17;;;;;;;5.18;1.00;;;23.30;99.90;;;;;;5124945;27;20090;-87
2022/08/01 09:03:44;;;;;;;8.57;1.30;;;23.50;99.90;;;;;;5122297;27;20035;-88
2022/08/01 09:06:10;;;;;;;7.60;1.20;;;23.70;99.90;;;;;;5139158;27;20035;-88
2022/08/01 09:08:36;;;;;;;8.52;1.65;;;24.10;99.90;;;;;;5124670;27;20043;-88
2022/08/01 09:11:02;;;;;;;;;;;24.20;99.90;;;;;;5141903;27;20107;-88
2022/08/01 09:13:28;;;;;;;5.85;0.90;;;23.90;99.90;;;;;;5141727;27;19915;-86
2022/08/01 09:15:54;;;;;;;;;;;23.70;99.90;;;;;;5123174;27;20081;-88
2022/08/01 09:18:40;;;;;;;5.23;1.00;;;23.90;99.90;;;;;;5143520;27;19979;-88
2022/08/01 09:21:09;;;;;;;7.32;1.00;;;23.90;99.90;;;;;;5140941;27;20088;-88
2022/08/01 09:23:42;;;;;;;4.25;0.90;;;23.60;99.90;;;;;;5125311;27;20428;-88
2022/08/01 09:26:15;;;;;;;7.25;0.88;;;23.60;99.90;;;;;;5142223;27;20031;-88
2022/08/01 09:28:42;;;;;;;9.45;1.00;;;24.00;99.90;;;;;;5124505;27;20038;-88
2022/08/01 09:31:17;;;;;;;8.95;1.27;;;24.30;99.80;;;;;;5141276;27;20075;-89
2022/08/01 09:33:55;;;;;;;12.55;1.27;;;24.50;99.90;;;;;;5124160;27;20043;-88
2022/08/01 09:36:25;;;;;;;5.93;0.85;;;24.40;99.90;;;;;;5121898;27;20056;-88
2022/08/01 09:38:53;;;;;;;6.22;1.00;;;24.60;99.90;;;;;;5123309;27;20027;-88
2022/08/01 09:41:30;;;;;;;6.82;1.05;;;24.60;99.50;;;;;;5107269;27;20390;-87
2022/08/01 09:43:56;;;;;;;5.65;1.00;;;24.30;99.40;;;;;;5147819;27;20775;-88
2022/08/01 09:46:23;;;;;;;4.80;0.90;;;24.30;99.40;;;;;;5127370;27;20828;-88
2022/08/01 09:49:03;;;;;;;10.38;0.90;;;24.60;99.50;;;;;;5128007;27;20046;-88
2022/08/01 09:51:31;;;;;;;4.97;0.90;;;24.80;99.90;;;;;;5141214;27;20047;-88
2022/08/01 09:53:59;;;;;;;5.68;1.00;;;24.90;99.20;;;;;;5086361;28;20487;-88
2022/08/01 09:56:25;;;;;;;6.88;1.20;;;24.90;98.10;;;;;;5118164;28;20035;-88
2022/08/01 09:58:59;;;;;;;4.63;1.25;;;24.90;98.10;;;;;;5106413;28;20523;-88
2022/08/01 10:01:25;;;;;;;4.68;1.05;;;24.70;97.70;;;;;;5120518;28;20513;-88
2022/08/01 10:04:24;;;;;;;8.40;0.93;;;24.90;99.00;;;;;;5101882;28;20491;-88
2022/08/01 10:06:53;;;;;;;3.63;0.98;;;25.10;97.90;;;;;;5100673;28;20031;-89
2022/08/01 10:09:30;;;;;;;5.85;0.80;;;24.90;98.20;;;;;;5104302;28;20035;-89
2022/08/01 10:11:57;;;;;;;3.58;0.77;;;25.10;98.00;;;;;;5100094;28;20043;-89
2022/08/01 10:14:25;;;;;;;7.53;1.52;;;25.30;97.50;;;;;;5115651;28;20039;-86
2022/08/01 10:16:53;;;;;;;8.95;1.30;;;25.50;96.90;;;;;;5101118;28;20100;-88
2022/08/01 10:19:23;;;;;;;4.82;0.95;;;25.60;97.10;;;;;;5119966;28;20147;-88
2022/08/01 10:21:53;;;;;;;5.30;0.90;;;25.80;97.70;;;;;;5105573;28;20510;-88
2022/08/01 10:24:23;;;;;;;3.45;0.70;;;26.10;97.10;;;;;;5111149;28;20042;-88
2022/08/01 10:26:54;;;;;;;4.15;0.90;;;26.00;96.40;;;;;;5104190;28;20093;-88
2022/08/01 10:29:21;;;;;;;4.55;0.88;;;25.60;96.40;;;;;;5115019;28;20376;-88
2022/08/01 10:31:48;;;;;;;5.88;1.00;;;25.40;96.60;;;;;;5104126;28;20039;-88
2022/08/01 10:34:17;;;;;;;5.22;1.05;;;25.40;97.00;;;;;;5094117;28;20066;-88
2022/08/01 10:36:45;;;;;;;5.82;1.00;;;25.30;96.60;;;;;;5104469;28;20036;-88
2022/08/01 10:39:11;;;;;;;5.40;0.77;;;25.30;96.80;;;;;;5119841;28;20043;-88
2022/08/01 10:41:38;;;;;;;3.80;1.00;;;24.90;96.70;;;;;;5100733;28;20035;-88
2022/08/01 10:44:06;;;;;;;5.88;0.80;;;25.20;97.40;;;;;;5120141;28;20074;-88
2022/08/01 10:46:33;;;;;;;6.05;1.00;;;25.30;96.40;;;;;;5095954;28;20047;-87
2022/08/01 10:49:06;;;;;;;4.97;0.73;;;25.40;96.30;;;;;;5119583;27;20043;-89
2022/08/01 10:51:37;;;;;;;3.88;0.98;;;25.80;96.50;;;;;;5114953;28;20498;-88
2022/08/01 10:54:06;;;;;;;4.53;0.80;;;26.20;95.70;;;;;;5119581;27;20446;-88
2022/08/01 10:56:51;;;;;;;7.78;0.90;;;25.50;95.20;;;;;;5124328;27;20039;-89
2022/08/01 10:59:25;;;;;;;4.60;0.80;;;25.90;96.80;;;;;;5107135;27;20024;-88
2022/08/01 11:01:58;;;;;;;4.40;0.77;;;26.20;95.50;;;;;;5107003;27;20038;-89
2022/08/01 11:04:54;;;;;;;3.45;0.70;;;26.50;95.80;;;;;;5104274;27;20087;-89
2022/08/01 11:07:46;;;;;;;4.80;0.70;;;26.60;95.20;;;;;;5125023;27;20035;-89
2022/08/01 11:10:36;;;;;;;5.15;0.85;;;26.40;94.50;;;;;;5118809;27;21244;-89
2022/08/01 11:13:03;;;;;;;4.03;0.80;;;26.40;94.90;;;;;;5108608;27;20100;-89
2022/08/01 11:15:29;;;;;;;2.25;0.60;;;26.40;95.40;;;;;;5098806;28;20067;-89
2022/08/01 11:17:55;;;;;;;6.57;0.80;;;26.40;95.30;;;;;;5126406;27;20031;-89
2022/08/01 11:20:32;;;;;;;6.32;0.88;;;26.50;95.20;;;;;;5104079;27;20114;-88
2022/08/01 11:23:01;;;;;;;5.90;0.80;;;26.50;94.20;;;;;;5104520;27;20028;-88
2022/08/01 11:25:48;;;;;;;5.65;0.75;;;26.20;94.10;;;;;;5122503;27;20500;-88
2022/08/01 11:28:13;;;;;;;;;;;26.70;95.20;;;;;;5109180;27;20039;-87
2022/08/01 11:30:43;;;;;;;2.58;0.55;;;27.10;93.60;;;;;;5107012;27;20030;-88
2022/08/01 11:33:09;;;;;;;4.80;0.73;;;27.40;93.10;;;;;;5124444;27;20564;-88
2022/08/01 11:35:36;;;;;;;4.18;0.77;;;27.30;93.20;;;;;;5107836;27;20027;-86
2022/08/01 11:38:29;;;;;;;4.28;0.73;;;27.10;93.70;;;;;;5124467;27;20047;-88
2022/08/01 11:41:10;;;;;;;3.67;0.70;;;26.80;93.70;;;;;;5108725;28;20403;-89
2022/08/01 11:43:57;;;;;;;4.30;0.90;;;26.90;94.00;;;;;;5120259;27;20054;-89
2022/08/01 11:46:48;;;;;;;5.90;1.20;;;27.20;92.90;;;;;;5105131;27;20098;-88
2022/08/01 11:49:29;;;;;;;5.35;0.75;;;26.90;93.20;;;;;;5119499;27;20521;-86
2022/08/01 11:52:06;;;;;;;4.32;1.08;;;27.00;93.50;;;;;;5127435;27;20119;-87
2022/08/01 11:54:36;;;;;;;6.28;0.95;;;27.00;93.00;;;;;;5122566;27;20040;-87
2022/08/01 11:57:07;;;;;;;5.63;0.85;;;27.20;93.60;;;;;;5121547;27;20118;-87
2022/08/01 11:59:45;;;;;;;3.13;0.73;;;27.10;92.50;;;;;;5105574;27;20096;-87
2022/08/01 12:02:34;;;;;;;2.88;0.57;;;27.10;92.80;;;;;;5122900;27;20035;-88
2022/08/01 12:05:07;;;;;;;2.35;0.70;;;27.30;92.60;;;;;;5104194;27;20545;-88
2022/08/01 12:07:35;;;;;;;2.85;0.70;;;27.60;92.60;;;;;;5118264;27;20043;-87
2022/08/01 12:10:05;;;;;;;3.83;0.70;;;27.20;93.00;;;;;;5086677;28;20080;-87
2022/08/01 12:12:32;;;;;;;4.72;0.73;;;27.20;92.60;;;;;;5119163;27;20032;-87
2022/08/01 12:15:05;;;;;;;4.70;1.10;;;27.00;92.90;;;;;;5123540;27;20426;-87
2022/08/01 12:17:40;;;;;;;4.88;0.60;;;26.90;92.30;;;;;;5104516;27;20039;-87
2022/08/01 12:20:12;;;;;;;4.32;0.70;;;27.00;92.20;;;;;;5118042;27;20039;-87
2022/08/01 12:22:38;;;;;;;2.85;0.60;;;27.10;91.70;;;;;;5119422;27;20047;-87
2022/08/01 12:25:16;;;;;;;2.47;0.60;;;27.10;91.50;;;;;;5084550;27;20079;-87
2022/08/01 12:27:44;;;;;;;2.65;0.55;;;27.40;91.90;;;;;;5122941;27;20035;-87
2022/08/01 12:30:15;;;;;;;4.72;0.90;;;27.90;91.30;;;;;;5103647;28;20027;-88
2022/08/01 12:32:43;;;;;;;3.30;0.52;;;28.10;91.60;;;;;;5102639;27;20043;-88
2022/08/01 12:35:23;;;;;;;7.30;0.70;;;28.40;92.30;;;;;;5122018;27;20035;-87
2022/08/01 12:37:51;;;;;;;3.63;0.52;;;28.10;90.90;;;;;;5105319;27;20035;-88
2022/08/01 12:40:23;;;;;;;3.05;0.65;;;28.00;91.00;;;;;;5119598;27;20027;-87
2022/08/01 12:42:51;;;;;;;3.83;0.52;;;27.80;91.40;;;;;;5114765;27;20050;-87
2022/08/01 12:45:26;;;;;;;3.42;0.73;;;27.90;91.50;;;;;;5085605;28;20035;-85
2022/08/01 12:47:53;;;;;;;3.97;0.88;;;28.00;91.60;;;;;;5117094;27;20039;-85
2022/08/01 12:50:21;;;;;;;5.90;1.10;;;27.70;92.00;;;;;;5118409;27;20054;-87
2022/08/01 12:52:48;;;;;;;3.03;0.50;;;27.40;92.30;;;;;;5104609;27;20039;-87
2022/08/01 12:55:20;;;;;;;6.65;0.70;;;27.20;91.80;;;;;;5104748;27;20051;-87
2022/08/01 12:57:52;;;;;;;2.40;0.60;;;27.50;91.70;;;;;;5119654;27;20375;-87